createdAt,value
2022-11-10T00:01:10.859Z,25.50
2022-11-10T00:03:39.481Z,28.73
2022-11-10T00:06:08.961Z,25.00
2022-11-10T00:08:36.388Z,26.35
2022-11-10T00:11:07.821Z,26.88
2022-11-10T00:13:56.936Z,23.38
2022-11-10T00:16:42.877Z,24.00
2022-11-10T00:19:09.900Z,22.85
2022-11-10T00:21:37.970Z,23.27
2022-11-10T00:24:05.574Z,21.95
2022-11-10T00:26:32.549Z,20.20
2022-11-10T00:28:59.500Z,22.85
2022-11-10T00:31:28.758Z,18.40
2022-11-10T00:33:56.295Z,17.90
2022-11-10T00:36:23.679Z,20.60
2022-11-10T00:38:51.503Z,20.67
2022-11-10T00:41:18.350Z,20.70
2022-11-10T00:43:45.195Z,19.98
2022-11-10T00:46:12.315Z,18.95
2022-11-10T00:48:39.203Z,19.40
2022-11-10T00:51:06.389Z,17.73
2022-11-10T00:53:33.430Z,18.60
2022-11-10T00:56:00.283Z,18.05
2022-11-10T00:58:27.086Z,20.17
2022-11-10T01:01:02.414Z,19.52
2022-11-10T01:03:29.490Z,17.80
2022-11-10T01:05:56.486Z,20.17
2022-11-10T01:08:24.058Z,20.38
2022-11-10T01:10:51.006Z,19.02
2022-11-10T01:13:17.845Z,20.38
2022-11-10T01:15:44.674Z,18.98
2022-11-10T01:18:11.605Z,19.17
2022-11-10T01:20:38.529Z,20.23
2022-11-10T01:23:05.413Z,19.23
2022-11-10T01:25:32.586Z,20.48
2022-11-10T01:27:59.421Z,20.92
2022-11-10T01:30:26.511Z,18.75
2022-11-10T01:32:55.167Z,19.38
2022-11-10T01:35:22.289Z,19.55
2022-11-10T01:37:51.207Z,19.10
2022-11-10T01:40:18.270Z,19.83
2022-11-10T01:43:05.354Z,18.42
2022-11-10T01:45:39.644Z,19.40
2022-11-10T01:48:08.910Z,16.27
2022-11-10T01:50:40.257Z,21.83
2022-11-10T01:53:11.038Z,19.95
2022-11-10T01:55:41.739Z,19.45
2022-11-10T01:58:09.764Z,17.58
2022-11-10T02:00:36.740Z,17.15
2022-11-10T02:03:53.336Z,20.02
2022-11-10T02:06:22.824Z,17.92
2022-11-10T02:08:50.960Z,18.30
2022-11-10T02:11:17.856Z,18.65
2022-11-10T02:13:44.892Z,17.25
2022-11-10T02:16:13.343Z,17.48
2022-11-10T02:18:40.225Z,16.95
2022-11-10T02:21:09.256Z,14.27
2022-11-10T02:23:36.339Z,15.23
2022-11-10T02:26:06.001Z,16.05
2022-11-10T02:28:38.219Z,14.90
2022-11-10T02:31:06.592Z,13.55
2022-11-10T02:33:33.431Z,14.18
2022-11-10T02:36:00.229Z,15.23
2022-11-10T02:38:27.124Z,16.42
2022-11-10T02:40:54.016Z,17.55
2022-11-10T02:43:21.240Z,16.95
2022-11-10T02:45:48.323Z,16.63
2022-11-10T02:48:16.390Z,14.38
2022-11-10T02:50:43.900Z,16.10
2022-11-10T02:53:11.121Z,16.58
2022-11-10T02:55:38.073Z,14.60
2022-11-10T02:58:05.113Z,14.05
2022-11-10T03:00:32.370Z,16.77
2022-11-10T03:03:02.145Z,15.20
2022-11-10T03:05:30.327Z,14.80
2022-11-10T03:07:59.671Z,13.27
2022-11-10T03:10:27.568Z,13.45
2022-11-10T03:12:55.880Z,17.75
2022-11-10T03:15:23.093Z,22.58
2022-11-10T03:17:50.212Z,16.30
2022-11-10T03:20:18.203Z,14.93
2022-11-10T03:22:45.360Z,17.60
2022-11-10T03:25:12.750Z,17.17
2022-11-10T03:27:39.850Z,17.90
2022-11-10T03:30:07.624Z,16.70
2022-11-10T03:32:34.755Z,17.13
2022-11-10T03:35:02.393Z,17.58
2022-11-10T03:37:29.267Z,16.83
2022-11-10T03:39:56.104Z,16.52
2022-11-10T03:42:22.961Z,20.52
2022-11-10T03:44:49.749Z,17.00
2022-11-10T03:47:16.668Z,21.65
2022-11-10T03:49:43.535Z,17.27
2022-11-10T03:52:10.348Z,17.95
2022-11-10T03:54:37.130Z,19.08
2022-11-10T03:57:04.531Z,17.48
2022-11-10T03:59:31.645Z,15.45
2022-11-10T04:01:58.507Z,18.88
2022-11-10T04:04:43.743Z,17.88
2022-11-10T04:07:32.496Z,22.33
2022-11-10T04:09:59.385Z,15.30
2022-11-10T04:12:44.675Z,16.73
2022-11-10T04:15:31.222Z,19.88
2022-11-10T04:18:18.255Z,15.88
2022-11-10T04:20:45.306Z,19.42
2022-11-10T04:23:27.777Z,18.17
2022-11-10T04:26:18.865Z,17.17
2022-11-10T04:28:51.512Z,19.23
2022-11-10T04:31:20.388Z,20.15
2022-11-10T04:33:48.220Z,18.15
2022-11-10T04:36:18.973Z,18.60
2022-11-10T04:38:46.285Z,23.67
2022-11-10T04:41:13.965Z,20.85
2022-11-10T04:43:41.586Z,18.42
2022-11-10T04:46:31.553Z,18.20
2022-11-10T04:48:58.893Z,16.20
2022-11-10T04:51:31.759Z,13.55
2022-11-10T04:53:59.082Z,17.98
2022-11-10T04:56:27.225Z,14.77
2022-11-10T04:58:54.756Z,15.88
2022-11-10T05:01:27.117Z,20.48
2022-11-10T05:03:54.948Z,17.17
2022-11-10T05:06:22.520Z,15.32
2022-11-10T05:08:49.807Z,16.98
2022-11-10T05:11:16.846Z,16.30
2022-11-10T05:13:44.336Z,16.83
2022-11-10T05:16:12.113Z,19.98
2022-11-10T05:18:39.168Z,15.25
2022-11-10T05:21:06.200Z,18.25
2022-11-10T05:23:39.153Z,17.58
2022-11-10T05:26:07.509Z,18.70
2022-11-10T05:28:34.915Z,16.58
2022-11-10T05:31:01.921Z,16.88
2022-11-10T05:33:29.003Z,16.83
2022-11-10T05:35:55.951Z,15.73
2022-11-10T05:38:22.840Z,13.88
2022-11-10T05:40:49.749Z,16.48
2022-11-10T05:43:16.742Z,18.17
2022-11-10T05:45:43.757Z,17.95
2022-11-10T05:48:10.558Z,17.38
2022-11-10T05:50:37.405Z,21.33
2022-11-10T05:53:04.247Z,19.88
2022-11-10T05:55:31.341Z,18.92
2022-11-10T05:57:58.410Z,13.60
2022-11-10T06:00:27.940Z,20.45
2022-11-10T06:03:15.149Z,15.65
2022-11-10T06:05:42.495Z,16.15
2022-11-10T06:08:09.810Z,17.85
2022-11-10T06:10:38.392Z,17.55
2022-11-10T06:13:05.744Z,15.63
2022-11-10T06:15:32.921Z,15.00
2022-11-10T06:17:59.882Z,18.02
2022-11-10T06:20:26.969Z,15.52
2022-11-10T06:23:07.030Z,15.05
2022-11-10T06:25:36.198Z,16.65
2022-11-10T06:28:04.027Z,16.00
2022-11-10T06:30:33.457Z,16.42
2022-11-10T06:33:00.618Z,17.35
2022-11-10T06:35:28.137Z,14.57
2022-11-10T06:38:09.817Z,15.80
2022-11-10T06:40:36.731Z,16.48
2022-11-10T06:43:04.659Z,16.35
2022-11-10T06:45:31.598Z,19.23
2022-11-10T06:48:04.205Z,17.02
2022-11-10T06:50:31.903Z,17.10
2022-11-10T06:53:00.102Z,14.82
2022-11-10T06:55:27.472Z,13.40
2022-11-10T06:57:54.512Z,14.13
2022-11-10T07:00:22.143Z,15.40
2022-11-10T07:02:49.007Z,14.07
2022-11-10T07:05:15.900Z,15.48
2022-11-10T07:07:42.748Z,15.07
2022-11-10T07:10:09.922Z,13.18
2022-11-10T07:12:36.721Z,15.75
2022-11-10T07:15:06.599Z,13.68
2022-11-10T07:17:38.883Z,15.77
2022-11-10T07:20:06.273Z,14.93
2022-11-10T07:22:33.390Z,17.00
2022-11-10T07:25:00.249Z,13.30
2022-11-10T07:27:27.306Z,10.57
2022-11-10T07:29:54.113Z,14.10
2022-11-10T07:32:20.938Z,16.67
2022-11-10T07:34:47.751Z,13.52
2022-11-10T07:37:14.595Z,10.88
2022-11-10T07:39:41.438Z,17.00
2022-11-10T07:42:08.677Z,13.18
2022-11-10T07:44:35.540Z,12.32
2022-11-10T07:47:02.385Z,15.32
2022-11-10T07:49:29.258Z,14.07
2022-11-10T07:51:56.096Z,11.70
2022-11-10T07:54:22.980Z,12.07
2022-11-10T07:56:49.787Z,13.30
2022-11-10T07:59:16.679Z,12.57
2022-11-10T08:01:43.523Z,11.32
2022-11-10T08:04:10.380Z,11.45
2022-11-10T08:06:37.397Z,10.02
2022-11-10T08:09:04.492Z,10.10
2022-11-10T08:15:18.882Z,11.40
2022-11-10T08:17:45.706Z,10.00
2022-11-10T08:20:12.545Z,10.43
2022-11-10T08:22:39.363Z,10.98
2022-11-10T08:25:06.580Z,11.45
2022-11-10T08:27:33.396Z,11.50
2022-11-10T08:30:00.328Z,8.82
2022-11-10T08:32:27.182Z,8.52
2022-11-10T08:34:53.994Z,8.23
2022-11-10T08:37:20.820Z,13.10
2022-11-10T08:39:47.631Z,13.65
2022-11-10T08:42:14.423Z,12.30
2022-11-10T08:44:41.266Z,8.93
2022-11-10T08:47:08.058Z,8.57
2022-11-10T08:49:37.104Z,7.93
2022-11-10T08:52:04.383Z,10.02
2022-11-10T08:54:31.243Z,10.48
2022-11-10T09:00:38.867Z,10.60
2022-11-10T09:03:08.124Z,9.77
2022-11-10T09:05:36.345Z,7.20
2022-11-10T09:08:04.529Z,7.43
2022-11-10T09:14:30.904Z,9.40
2022-11-10T09:16:57.740Z,7.03
2022-11-10T09:19:24.674Z,7.10
2022-11-10T09:21:51.630Z,9.40
2022-11-10T09:24:18.451Z,6.72
2022-11-10T09:26:47.748Z,5.57
2022-11-10T09:29:14.712Z,9.73
2022-11-10T09:31:45.060Z,10.05
2022-11-10T09:37:52.926Z,6.50
2022-11-10T09:40:23.925Z,9.85
2022-11-10T09:42:56.608Z,7.93
2022-11-10T09:45:46.555Z,10.75
2022-11-10T09:48:33.267Z,5.78
2022-11-10T09:51:08.585Z,10.98
2022-11-10T09:53:58.889Z,5.97
2022-11-10T09:56:36.224Z,6.32
2022-11-10T09:59:36.455Z,5.28
2022-11-10T10:02:16.471Z,7.55
2022-11-10T10:05:03.299Z,8.50
2022-11-10T10:07:46.502Z,8.85
2022-11-10T10:10:28.215Z,8.55
2022-11-10T10:13:39.338Z,5.72
2022-11-10T10:16:35.707Z,7.93
2022-11-10T10:19:16.280Z,7.28
2022-11-10T10:21:48.887Z,4.38
2022-11-10T10:24:22.173Z,6.65
2022-11-10T10:26:54.755Z,5.13
2022-11-10T10:29:41.081Z,6.60
2022-11-10T10:32:13.084Z,4.50
2022-11-10T10:34:41.305Z,6.25
2022-11-10T10:37:25.232Z,3.95
2022-11-10T10:39:55.335Z,4.00
2022-11-10T10:42:32.715Z,4.15
2022-11-10T10:45:12.565Z,3.50
2022-11-10T10:47:40.100Z,3.30
2022-11-10T10:50:27.261Z,4.20
2022-11-10T10:53:24.956Z,4.38
2022-11-10T10:56:02.168Z,4.88
2022-11-10T10:58:29.048Z,4.22
2022-11-10T11:00:59.589Z,3.15
2022-11-10T11:03:30.273Z,3.75
2022-11-10T11:06:07.611Z,3.50
2022-11-10T11:08:40.421Z,4.50
2022-11-10T11:14:48.115Z,3.65
2022-11-10T11:17:19.421Z,3.88
2022-11-10T11:19:46.399Z,5.25
2022-11-10T11:22:13.181Z,3.58
2022-11-10T11:25:03.581Z,5.20
2022-11-10T11:27:36.345Z,2.95
2022-11-10T11:30:06.661Z,3.55
2022-11-10T11:36:38.409Z,4.97
2022-11-10T11:39:20.946Z,6.88
2022-11-10T11:42:20.632Z,5.32
2022-11-10T11:45:16.094Z,7.78
2022-11-10T11:48:01.447Z,12.52
2022-11-10T11:50:44.502Z,6.53
2022-11-10T11:53:11.427Z,6.53
2022-11-10T11:55:57.596Z,8.90
2022-11-10T11:58:31.512Z,6.65
2022-11-10T12:01:26.765Z,8.38
2022-11-10T12:04:17.917Z,8.98
2022-11-10T12:07:06.195Z,5.68
2022-11-10T12:09:43.668Z,9.98
2022-11-10T12:12:38.100Z,10.60
2022-11-10T12:15:30.972Z,7.93
2022-11-10T12:18:05.428Z,5.70
2022-11-10T12:20:46.598Z,6.95
2022-11-10T12:23:38.388Z,10.00
2022-11-10T12:26:22.686Z,6.18
2022-11-10T12:29:01.227Z,7.03
2022-11-10T12:31:31.794Z,7.40
2022-11-10T12:34:31.893Z,13.63
2022-11-10T12:37:02.002Z,8.68
2022-11-10T12:40:10.671Z,10.07
2022-11-10T12:42:38.577Z,9.15
2022-11-10T12:45:08.585Z,6.90
2022-11-10T12:47:46.864Z,7.85
2022-11-10T12:50:38.341Z,9.85
2022-11-10T12:53:25.069Z,8.05
2022-11-10T12:56:07.717Z,7.75
2022-11-10T12:58:34.687Z,8.75
2022-11-10T13:01:05.318Z,7.95
2022-11-10T13:03:36.273Z,7.90
2022-11-10T13:06:27.666Z,8.52
2022-11-10T13:08:54.975Z,9.18
2022-11-10T13:11:33.683Z,8.95
2022-11-10T13:14:03.212Z,10.50
2022-11-10T13:16:41.494Z,9.00
2022-11-10T13:19:10.081Z,12.00
2022-11-10T13:21:51.657Z,14.45
2022-11-10T13:24:18.497Z,8.90
2022-11-10T13:26:45.315Z,8.57
2022-11-10T13:29:35.108Z,9.25
2022-11-10T13:32:07.879Z,8.15
2022-11-10T13:34:35.436Z,5.63
2022-11-10T13:37:03.581Z,8.10
2022-11-10T13:39:33.268Z,8.32
2022-11-10T13:42:09.192Z,9.02
2022-11-10T13:44:38.909Z,6.97
2022-11-10T13:47:08.841Z,8.00
2022-11-10T13:49:56.916Z,8.23
2022-11-10T13:52:46.400Z,11.20
2022-11-10T13:55:36.189Z,10.43
2022-11-10T13:58:11.654Z,14.57
2022-11-10T14:00:38.556Z,6.30
2022-11-10T14:03:28.611Z,9.60
2022-11-10T14:06:03.450Z,9.18
2022-11-10T14:08:35.884Z,11.30
2022-11-10T14:15:14.767Z,9.88
2022-11-10T14:17:46.805Z,11.00
2022-11-10T14:20:45.972Z,10.73
2022-11-10T14:23:37.289Z,7.18
2022-11-10T14:26:12.629Z,8.27
2022-11-10T14:28:39.678Z,8.27
2022-11-10T14:31:06.529Z,7.90
2022-11-10T14:33:33.477Z,9.00
2022-11-10T14:36:03.089Z,11.45
2022-11-10T14:38:37.315Z,7.75
2022-11-10T14:41:06.699Z,12.15
2022-11-10T14:43:38.358Z,8.50
2022-11-10T14:46:07.232Z,12.10
2022-11-10T14:48:38.074Z,6.32
2022-11-10T14:51:13.314Z,8.38
2022-11-10T14:53:47.007Z,7.55
2022-11-10T14:56:22.592Z,10.73
2022-11-10T14:58:50.363Z,10.55
2022-11-10T15:01:39.027Z,8.07
2022-11-10T15:04:08.098Z,15.45
2022-11-10T15:06:35.400Z,10.75
2022-11-10T15:09:35.458Z,10.85
2022-11-10T15:12:08.339Z,11.80
2022-11-10T15:14:41.290Z,13.48
2022-11-10T15:17:17.252Z,10.52
2022-11-10T15:19:47.158Z,8.52
2022-11-10T15:22:30.966Z,15.82
2022-11-10T15:25:01.477Z,13.05
2022-11-10T15:27:29.775Z,13.30
2022-11-10T15:30:02.179Z,10.30
2022-11-10T15:32:42.799Z,12.07
2022-11-10T15:35:25.252Z,11.55
2022-11-10T15:38:21.347Z,12.93
2022-11-10T15:40:50.438Z,13.88
2022-11-10T15:43:20.397Z,12.57
2022-11-10T15:46:00.315Z,13.45
2022-11-10T15:48:37.163Z,9.65
2022-11-10T15:51:05.427Z,16.33
2022-11-10T15:53:39.088Z,11.73
2022-11-10T15:56:07.774Z,10.40
2022-11-10T15:58:34.848Z,8.48
2022-11-10T16:01:02.244Z,12.75
2022-11-10T16:03:31.245Z,14.98
2022-11-10T16:05:58.175Z,13.15
2022-11-10T16:08:26.673Z,15.57
2022-11-10T16:10:56.104Z,11.88
2022-11-10T16:13:29.126Z,11.43
2022-11-10T16:15:57.612Z,11.93
2022-11-10T16:18:27.272Z,10.75
2022-11-10T16:20:54.152Z,11.90
2022-11-10T16:23:21.723Z,11.15
2022-11-10T16:25:51.520Z,11.80
2022-11-10T16:28:24.073Z,11.20
2022-11-10T16:30:51.958Z,9.68
2022-11-10T16:33:20.593Z,7.30
2022-11-10T16:35:53.885Z,12.20
2022-11-10T16:38:27.388Z,12.82
2022-11-10T16:40:58.817Z,6.77
2022-11-10T16:43:26.712Z,11.68
2022-11-10T16:45:57.559Z,11.50
2022-11-10T16:48:34.279Z,8.77
2022-11-10T16:51:02.504Z,15.55
2022-11-10T16:57:17.653Z,14.50
2022-11-10T16:59:45.831Z,10.65
2022-11-10T17:02:31.394Z,12.05
2022-11-10T17:04:58.726Z,11.18
2022-11-10T17:07:27.454Z,11.50
2022-11-10T17:09:59.107Z,16.95
2022-11-10T17:12:26.016Z,15.00
2022-11-10T17:14:52.919Z,12.95
2022-11-10T17:17:20.236Z,12.40
2022-11-10T17:19:48.683Z,18.15
2022-11-10T17:22:19.472Z,15.57
2022-11-10T17:24:53.397Z,14.48
2022-11-10T17:27:20.419Z,12.45
2022-11-10T17:29:47.488Z,15.60
2022-11-10T17:32:14.306Z,13.93
2022-11-10T17:34:41.101Z,22.13
2022-11-10T17:37:12.338Z,20.70
2022-11-10T17:39:40.417Z,17.33
2022-11-10T17:42:13.040Z,14.07
2022-11-10T17:44:39.875Z,11.75
2022-11-10T17:47:06.731Z,14.05
2022-11-10T17:49:33.535Z,14.48
2022-11-10T17:52:00.405Z,17.10
2022-11-10T17:54:27.263Z,21.77
2022-11-10T17:56:54.092Z,18.23
2022-11-10T17:59:20.916Z,22.75
2022-11-10T18:01:47.772Z,17.50
2022-11-10T18:04:14.691Z,29.98
2022-11-10T18:06:41.564Z,19.02
2022-11-10T18:09:08.409Z,16.95
2022-11-10T18:11:35.215Z,20.90
2022-11-10T18:14:02.668Z,16.73
2022-11-10T18:16:29.543Z,15.55
2022-11-10T18:18:58.810Z,19.20
2022-11-10T18:21:25.676Z,20.63
2022-11-10T18:23:52.550Z,21.73
2022-11-10T18:26:19.393Z,20.30
2022-11-10T18:28:50.056Z,21.88
2022-11-10T18:31:18.371Z,16.75
2022-11-10T18:33:45.366Z,17.48
2022-11-10T18:36:12.328Z,19.35
2022-11-10T18:38:39.296Z,19.63
2022-11-10T18:41:25.722Z,22.25
2022-11-10T18:43:52.893Z,18.50
2022-11-10T18:46:19.924Z,17.48
2022-11-10T18:48:47.208Z,19.85
2022-11-10T18:51:15.302Z,22.40
2022-11-10T18:53:42.273Z,20.98
2022-11-10T18:56:09.105Z,22.67
2022-11-10T18:58:35.950Z,21.38
2022-11-10T19:01:07.929Z,18.27
2022-11-10T19:03:36.040Z,18.92
2022-11-10T19:06:03.895Z,23.38
2022-11-10T19:08:30.945Z,17.73
2022-11-10T19:10:58.195Z,22.75
2022-11-10T19:13:25.669Z,23.42
2022-11-10T19:15:53.446Z,20.85
2022-11-10T19:18:20.293Z,21.60
2022-11-10T19:20:47.111Z,21.60
2022-11-10T19:23:13.978Z,18.35
2022-11-10T19:25:40.802Z,23.20
2022-11-10T19:28:11.455Z,20.25
2022-11-10T19:30:39.378Z,19.52
2022-11-10T19:33:06.656Z,17.45
2022-11-10T19:35:33.483Z,17.40
2022-11-10T19:38:00.506Z,18.45
2022-11-10T19:40:27.362Z,23.67
2022-11-10T19:42:54.248Z,18.25
2022-11-10T19:45:21.078Z,17.83
2022-11-10T19:47:47.921Z,16.20
2022-11-10T19:50:14.885Z,17.50
2022-11-10T19:52:41.738Z,18.05
2022-11-10T19:55:08.643Z,17.88
2022-11-10T19:57:35.493Z,15.93
2022-11-10T20:00:02.362Z,15.82
2022-11-10T20:02:29.174Z,18.60
2022-11-10T20:05:16.171Z,20.63
2022-11-10T20:08:08.856Z,16.98
2022-11-10T20:10:37.714Z,13.45
2022-11-10T20:13:04.546Z,18.25
2022-11-10T20:15:31.516Z,13.18
2022-11-10T20:17:58.346Z,23.88
2022-11-10T20:20:25.370Z,14.45
2022-11-10T20:22:52.177Z,13.73
2022-11-10T20:25:19.217Z,15.85
2022-11-10T20:27:46.124Z,14.93
2022-11-10T20:30:12.984Z,14.20
2022-11-10T20:32:39.817Z,20.67
2022-11-10T20:35:15.891Z,18.35
2022-11-10T20:37:43.175Z,19.77
2022-11-10T20:40:37.687Z,16.45
2022-11-10T20:42:57.850Z,15.70
2022-11-10T20:45:24.682Z,17.17
2022-11-10T20:47:51.489Z,19.00
2022-11-10T20:50:23.206Z,15.85
2022-11-10T20:52:50.943Z,17.92
2022-11-10T20:55:18.550Z,16.52
2022-11-10T20:57:45.574Z,19.52
2022-11-10T21:00:12.793Z,14.77
2022-11-10T21:02:39.670Z,19.92
2022-11-10T21:05:06.750Z,18.15
2022-11-10T21:07:33.828Z,19.33
2022-11-10T21:10:00.738Z,18.42
2022-11-10T21:12:45.895Z,23.35
2022-11-10T21:15:12.849Z,19.45
2022-11-10T21:17:43.985Z,18.30
2022-11-10T21:20:11.541Z,17.23
2022-11-10T21:22:38.505Z,23.10
2022-11-10T21:25:06.527Z,14.52
2022-11-10T21:27:33.404Z,17.67
2022-11-10T21:30:00.403Z,20.15
2022-11-10T21:32:27.552Z,19.00
2022-11-10T21:34:54.447Z,21.58
2022-11-10T21:41:09.071Z,19.35
2022-11-10T21:43:35.980Z,19.08
2022-11-10T21:46:04.062Z,25.00
2022-11-10T21:48:31.001Z,19.48
2022-11-10T21:51:02.741Z,17.70
2022-11-10T21:53:30.359Z,20.25
2022-11-10T21:56:02.190Z,20.60
2022-11-10T21:58:29.328Z,19.67
2022-11-10T22:01:07.760Z,20.63
2022-11-10T22:03:35.372Z,17.58
2022-11-10T22:06:10.322Z,15.80
2022-11-10T22:08:38.268Z,18.85
2022-11-10T22:11:24.383Z,26.15
2022-11-10T22:14:09.667Z,22.38
2022-11-10T22:17:04.189Z,16.65
2022-11-10T22:19:32.661Z,21.63
2022-11-10T22:22:03.707Z,18.27
2022-11-10T22:24:30.985Z,18.63
2022-11-10T22:27:02.901Z,17.08
2022-11-10T22:29:32.705Z,16.38
2022-11-10T22:32:00.949Z,17.35
2022-11-10T22:34:28.129Z,19.13
2022-11-10T22:36:55.006Z,20.35
2022-11-10T22:39:22.027Z,14.05
2022-11-10T22:42:07.623Z,19.13
2022-11-10T22:44:36.203Z,20.02
2022-11-10T22:47:03.119Z,16.77
2022-11-10T22:49:29.974Z,20.85
2022-11-10T22:51:56.903Z,14.23
2022-11-10T22:54:24.677Z,21.42
2022-11-10T22:56:52.196Z,17.75
2022-11-10T22:59:19.613Z,18.38
2022-11-10T23:01:46.792Z,21.90
2022-11-10T23:04:16.081Z,19.58
2022-11-10T23:06:43.233Z,17.15
2022-11-10T23:09:10.260Z,15.50
2022-11-10T23:11:37.345Z,19.35
2022-11-10T23:14:04.271Z,17.77
2022-11-10T23:16:34.532Z,19.42
2022-11-10T23:19:02.083Z,19.25
2022-11-10T23:21:30.503Z,18.10
2022-11-10T23:23:58.052Z,15.88
2022-11-10T23:26:27.602Z,21.50
2022-11-10T23:28:54.475Z,14.88
2022-11-10T23:31:24.016Z,20.58
2022-11-10T23:33:53.236Z,16.73
2022-11-10T23:36:21.490Z,15.88
2022-11-10T23:38:51.335Z,21.73
2022-11-10T23:41:20.339Z,15.20
2022-11-10T23:43:47.620Z,20.15
2022-11-10T23:46:15.221Z,21.02
2022-11-10T23:48:42.229Z,16.95
2022-11-10T23:51:11.074Z,16.38
2022-11-10T23:53:38.275Z,17.85
2022-11-10T23:56:09.455Z,17.15
2022-11-10T23:58:36.367Z,23.40
